Погода Новая Есинеевкана 2 недели

Пензенская область, Россия

24 мая-06 июня
  • 24мая
    Сегодня
    +5°
    +17°
    Ясно и безоблачно
    ВремяПогодаТемператураВлажностьДавлениеВетер, м/сВероятность осадков
    00:00Ясно и безоблачно+7°C40 %757 мм4.1 м/с2 %
    03:00Ясно и безоблачно+5°C49 %758 мм2.9 м/с2 %
    06:00Ясно и безоблачно+6°C58 %759 мм2.4 м/с2 %
    09:00Ясно и безоблачно+12°C38 %759 мм3.6 м/с2 %
    12:00Ясно и безоблачно+15°C35 %759 мм3.3 м/с2 %
    15:00Ясно и безоблачно+16°C34 %759 мм2.9 м/с2 %
    18:00Ясно и безоблачно+16°C37 %758 мм2.2 м/с2 %
    21:00Облачно с прояснениями+10°C64 %759 мм2.2 м/с2 %
  • 25мая
    Суббота
    +7°
    +20°
    Ясно и безоблачно
    ВремяПогодаТемператураВлажностьДавлениеВетер, м/сВероятность осадков
    00:00Небольшая облачность+7°C74 %758 мм2.3 м/с2 %
    03:00Небольшая облачность+6°C80 %759 мм2.3 м/с2 %
    06:00Ясно и безоблачно+9°C69 %759 мм1.7 м/с2 %
    09:00Ясно и безоблачно+16°C41 %759 мм2.1 м/с2 %
    12:00Ясно и безоблачно+19°C39 %758 мм1.7 м/с2 %
    15:00Ясно и безоблачно+19°C38 %757 мм2.4 м/с2 %
    18:00Ясно и безоблачно+19°C41 %755 мм2.4 м/с2 %
    21:00Ясно и безоблачно+13°C67 %754 мм2.1 м/с2 %
  • 26мая
    Воскресенье
    +9°
    +23°
    Практически безоблачно
    ВремяПогодаТемператураВлажностьДавлениеВетер, м/сВероятность осадков
    00:00Ясно и безоблачно+10°C79 %754 мм2.3 м/с2 %
    03:00Ясно и безоблачно+8°C80 %753 мм2.2 м/с2 %
    06:00Ясно и безоблачно+12°C66 %753 мм2.5 м/с2 %
    09:00Практически безоблачно+19°C45 %753 мм3.3 м/с2 %
    12:00Облачно с прояснениями+21°C36 %752 мм4.3 м/с2 %
    15:00Практически безоблачно+23°C35 %751 мм4.2 м/с2 %
    18:00Ясно и безоблачно+22°C43 %751 мм2.5 м/с2 %
    21:00Практически безоблачно+16°C75 %751 мм3.3 м/с4 %
  • 27мая
    Понедельник
    +8°
    +19°
    Ясно и безоблачно
    ВремяПогодаТемператураВлажностьДавлениеВетер, м/сВероятность осадков
    00:00Практически безоблачно+13°C85 %752 мм4.3 м/с10 %
    03:00Ясно и безоблачно+11°C91 %754 мм3.6 м/с4 %
    06:00Ясно и безоблачно+11°C83 %755 мм3.4 м/с3 %
    09:00Ясно и безоблачно+16°C51 %756 мм4.1 м/с4 %
    12:00Ясно и безоблачно+18°C38 %756 мм3.9 м/с3 %
    15:00Ясно и безоблачно+19°C35 %755 мм3.3 м/с5 %
    18:00Ясно и безоблачно+18°C39 %755 мм3.1 м/с2 %
    21:00Ясно и безоблачно+13°C60 %755 мм2.1 м/с2 %
  • 28мая
    Вторник
    +9°
    +22°
    Ясно и безоблачно
    ВремяПогодаТемператураВлажностьДавлениеВетер, м/сВероятность осадков
    00:00Ясно и безоблачно+10°C71 %755 мм2.1 м/с2 %
    03:00Ясно и безоблачно+9°C77 %755 мм2.1 м/с2 %
    06:00Ясно и безоблачно+10°C71 %756 мм1.9 м/с2 %
    09:00Ясно и безоблачно+17°C41 %756 мм2.0 м/с2 %
    12:00Ясно и безоблачно+20°C37 %755 мм0.9 м/с2 %
    15:00Ясно и безоблачно+21°C33 %754 мм0.6 м/с2 %
    18:00Ясно и безоблачно+22°C34 %753 мм0.3 м/с2 %
    21:00Ясно и безоблачно+16°C51 %753 мм1.3 м/с2 %
Мы используем cookies
Соглашаюсь